Time;durP1;ratioP1;P1;durP2;ratioP2;P2;SDS_P1;SDS_P2;PMS_P1;PMS_P2;Temp;Humidity;BMP_temperature;BMP_pressure;BME280_temperature;BME280_humidity;BME280_pressure;Samples;Min_cycle;Max_cycle;Signal;HPM_P1;HPM_P2
2023/08/06 00:00:55;;;;;;;11.82;3.63;;;;;;;-141.23;100.00;62281.09;4987031;28;20052;-76
2023/08/06 00:04:19;;;;;;;7.97;3.75;;;;;;;-141.23;100.00;62281.09;5002559;28;20103;-75
2023/08/06 00:07:12;;;;;;;6.60;3.90;;;;;;;-141.23;100.00;62281.09;5002427;28;20044;-75
2023/08/06 00:09:40;;;;;;;8.20;3.67;;;;;;;-141.23;100.00;62281.09;5002466;28;20052;-76
2023/08/06 00:12:17;;;;;;;7.47;3.75;;;;;;;-141.23;100.00;62281.09;5018226;28;20056;-75
2023/08/06 00:15:42;;;;;;;6.60;3.88;;;;;;;-141.23;100.00;62281.09;5003391;28;20055;-76
2023/08/06 00:18:10;;;;;;;15.48;4.40;;;;;;;-141.23;100.00;62281.09;5003836;28;20045;-76
2023/08/06 00:21:37;;;;;;;5.72;3.70;;;;;;;-141.23;100.00;62281.09;5003721;28;20037;-76
2023/08/06 00:24:14;;;;;;;5.90;3.60;;;;;;;-141.23;100.00;62281.09;5020253;28;20048;-76
2023/08/06 00:27:38;;;;;;;9.77;4.30;;;;;;;-141.23;100.00;62281.09;5003050;28;20037;-76
2023/08/06 00:31:03;;;;;;;8.43;3.65;;;;;;;-141.23;100.00;62281.09;5019847;28;20123;-73
2023/08/06 00:34:28;;;;;;;10.80;4.72;;;;;;;-141.23;100.00;62281.09;5020072;28;20044;-75
2023/08/06 00:37:53;;;;;;;9.48;3.55;;;;;;;-141.23;100.00;62281.09;5003456;28;20072;-74
2023/08/06 00:41:19;;;;;;;10.02;4.47;;;;;;;-141.23;100.00;62281.09;5003208;28;20037;-73
2023/08/06 00:43:49;;;;;;;8.80;3.85;;;;;;;-141.23;100.00;62281.09;5003434;28;20091;-74
2023/08/06 00:46:14;;;;;;;13.48;4.28;;;;;;;-141.23;100.00;62281.09;5004594;28;20033;-74
2023/08/06 00:49:15;;;;;;;7.55;4.07;;;;;;;-141.23;100.00;62281.09;5004169;28;20064;-75
2023/08/06 00:51:41;;;;;;;;;;;;;;;-141.23;100.00;62281.09;5003058;28;20434;-74
2023/08/06 00:54:12;;;;;;;13.05;4.20;;;;;;;-141.23;100.00;62281.09;5002427;28;19920;-73
2023/08/06 00:56:51;;;;;;;;;;;;;;;-141.23;100.00;62281.09;5002855;28;20052;-74
2023/08/06 00:59:19;;;;;;;6.15;4.25;;;;;;;-141.23;100.00;62281.09;4985612;28;20014;-73
2023/08/06 01:01:50;;;;;;;10.18;4.00;;;;;;;-141.23;100.00;62281.09;5001644;28;20041;-73
2023/08/06 01:05:14;;;;;;;10.60;4.47;;;;;;;-141.23;100.00;62281.09;5001034;28;20044;-74
2023/08/06 01:08:58;;;;;;;7.30;4.10;;;;;;;-141.23;100.00;62281.09;5001105;28;20387;-74
2023/08/06 01:12:15;;;;;;;9.38;4.18;;;;;;;-141.23;100.00;62281.09;5000924;28;20403;-72
2023/08/06 01:15:58;;;;;;;11.10;3.80;;;;;;;-141.23;100.00;62281.09;5013634;28;20045;-73
2023/08/06 01:19:26;;;;;;;9.90;4.47;;;;;;;-141.23;100.00;62281.09;4981754;28;20455;-73
2023/08/06 01:22:53;;;;;;;10.32;4.05;;;;;;;-141.23;100.00;62281.09;4981667;28;20460;-75
2023/08/06 01:26:27;;;;;;;7.47;3.80;;;;;;;-141.23;100.00;62281.09;5014481;28;20061;-73
2023/08/06 01:30:13;;;;;;;6.32;4.38;;;;;;;-141.23;100.00;62281.09;4962110;28;20061;-73
2023/08/06 01:32:45;;;;;;;5.88;4.00;;;;;;;-141.23;100.00;62281.09;4962091;28;20064;-74
2023/08/06 01:36:10;;;;;;;9.60;4.90;;;;;;;-141.23;100.00;62281.09;4962020;28;20053;-74
2023/08/06 01:39:35;;;;;;;14.25;4.50;;;;;;;-141.23;100.00;62281.09;4962460;28;20073;-75
2023/08/06 01:42:09;;;;;;;8.70;4.70;;;;;;;-141.23;100.00;62281.09;4962371;28;20046;-74
2023/08/06 01:44:44;;;;;;;13.15;4.70;;;;;;;-141.23;100.00;62281.09;4964831;28;20057;-73
2023/08/06 01:47:22;;;;;;;9.18;4.10;;;;;;;-141.23;100.00;62281.09;4984760;28;20079;-75
2023/08/06 01:50:46;;;;;;;6.38;4.60;;;;;;;-141.23;100.00;62281.09;4983435;28;20447;-75
2023/08/06 01:53:38;;;;;;;11.80;4.30;;;;;;;-141.23;100.00;62281.09;5014479;28;20037;-72
2023/08/06 01:56:28;;;;;;;6.45;4.50;;;;;;;-141.23;100.00;62281.09;4998706;28;20064;-75
2023/08/06 01:59:20;;;;;;;6.43;4.32;;;;;;;-141.23;100.00;62281.09;4981833;28;20041;-76
2023/08/06 02:02:33;;;;;;;13.10;4.45;;;;;;;-141.23;100.00;62281.09;4982502;28;20061;-76
2023/08/06 02:05:04;;;;;;;6.70;4.38;;;;;;;-141.23;100.00;62281.09;5015686;28;20041;-76
2023/08/06 02:07:40;;;;;;;11.55;4.20;;;;;;;-141.23;100.00;62281.09;4999045;28;20048;-73
2023/08/06 02:11:06;;;;;;;5.45;4.32;;;;;;;-141.23;100.00;62281.09;5015191;28;20069;-73
2023/08/06 02:14:30;;;;;;;5.90;4.72;;;;;;;-141.23;100.00;62281.09;5014934;28;20045;-73
2023/08/06 02:17:55;;;;;;;7.13;4.30;;;;;;;-141.23;100.00;62281.09;5014845;28;20045;-73
2023/08/06 02:21:40;;;;;;;7.00;4.30;;;;;;;-141.23;100.00;62281.09;5004362;28;20045;-73
2023/08/06 02:25:05;;;;;;;10.18;5.13;;;;;;;-141.23;100.00;62281.09;4982544;28;20067;-74
2023/08/06 02:28:29;;;;;;;12.50;4.30;;;;;;;-141.23;100.00;62281.09;4981715;28;20136;-75
2023/08/06 02:31:55;;;;;;;11.75;4.93;;;;;;;-141.23;100.00;62281.09;5002247;28;20112;-75
2023/08/06 02:35:20;;;;;;;8.40;4.30;;;;;;;-141.23;100.00;62281.09;5037287;28;20509;-75
2023/08/06 02:38:45;;;;;;;10.88;4.80;;;;;;;-141.23;100.00;62281.09;5000446;28;20045;-75
2023/08/06 02:42:09;;;;;;;8.07;4.65;;;;;;;-141.23;100.00;62281.09;5033401;28;20053;-75
2023/08/06 02:45:35;;;;;;;10.18;5.18;;;;;;;-141.23;100.00;62281.09;5017098;28;20163;-75
2023/08/06 02:48:09;;;;;;;10.82;5.57;;;;;;;-141.23;100.00;62281.09;5000093;28;20137;-75
2023/08/06 02:51:39;;;;;;;10.30;4.88;;;;;;;-141.23;100.00;62281.09;5016883;28;20832;-76
2023/08/06 02:55:05;;;;;;;13.25;4.68;;;;;;;-141.23;100.00;62281.09;5034930;28;20060;-75
2023/08/06 02:57:37;;;;;;;8.43;4.57;;;;;;;-141.23;100.00;62281.09;5000497;28;20136;-76
2023/08/06 03:01:05;;;;;;;13.75;4.90;;;;;;;-141.23;100.00;62281.09;5016205;28;20051;-74
2023/08/06 03:03:39;;;;;;;14.82;5.00;;;;;;;-141.23;100.00;62281.09;4982336;28;20045;-74
2023/08/06 03:06:08;;;;;;;8.85;4.65;;;;;;;-141.23;100.00;62281.09;4980544;28;20545;-75
2023/08/06 03:09:44;;;;;;;10.98;4.97;;;;;;;-141.23;100.00;62281.09;4996843;28;20057;-75
2023/08/06 03:12:11;;;;;;;17.50;5.18;;;;;;;-141.23;100.00;62281.09;4980521;28;20495;-75
2023/08/06 03:14:38;;;;;;;13.93;5.00;;;;;;;-141.23;100.00;62281.09;4981122;28;20144;-75
2023/08/06 03:17:55;;;;;;;14.55;5.70;;;;;;;-141.23;100.00;62281.09;4977735;28;20073;-75
2023/08/06 03:20:22;;;;;;;11.80;5.38;;;;;;;-141.23;100.00;62281.09;4964544;28;20054;-75
2023/08/06 03:23:51;;;;;;;8.10;4.43;;;;;;;-141.23;100.00;62281.09;4980966;28;20046;-75
2023/08/06 03:26:24;;;;;;;11.27;4.80;;;;;;;-141.23;100.00;62281.09;4952186;28;20054;-75
2023/08/06 03:29:52;;;;;;;14.97;4.93;;;;;;;-141.23;100.00;62281.09;4965838;28;20159;-75
2023/08/06 03:32:24;;;;;;;12.98;4.90;;;;;;;-141.23;100.00;62281.09;4964682;28;20149;-74
2023/08/06 03:34:51;;;;;;;12.80;4.40;;;;;;;-141.23;100.00;62281.09;4980493;28;20049;-74
2023/08/06 03:37:21;;;;;;;9.85;4.35;;;;;;;-141.23;100.00;62281.09;4964038;28;20042;-74
2023/08/06 03:39:47;;;;;;;10.68;4.80;;;;;;;-141.23;100.00;62281.09;4948502;28;20140;-74
2023/08/06 03:42:47;;;;;;;8.70;5.03;;;;;;;-141.23;100.00;62281.09;4964343;28;20061;-74
2023/08/06 03:45:13;;;;;;;12.50;4.25;;;;;;;-141.23;100.00;62281.09;4980301;28;20054;-74
2023/08/06 03:48:26;;;;;;;15.15;5.05;;;;;;;-141.23;100.00;62281.09;5022676;28;20134;-76
2023/08/06 03:51:44;;;;;;;11.35;4.38;;;;;;;-141.23;100.00;62281.09;5035818;28;20048;-75
2023/08/06 03:54:23;;;;;;;10.60;4.75;;;;;;;-141.23;100.00;62281.09;5035837;28;20052;-76
2023/08/06 03:57:42;;;;;;;14.10;5.05;;;;;;;-141.23;100.00;62281.09;5035450;28;20063;-75
2023/08/06 04:00:09;;;;;;;15.13;4.75;;;;;;;-141.23;100.00;62281.09;5032002;28;20115;-76
2023/08/06 04:03:40;;;;;;;11.45;4.57;;;;;;;-141.23;100.00;62281.09;5000294;28;20480;-75
2023/08/06 04:07:07;;;;;;;12.60;4.70;;;;;;;-141.23;100.00;62281.09;4992835;28;20058;-75
2023/08/06 04:09:52;;;;;;;8.40;4.88;;;;;;;-141.23;100.00;62281.09;4976306;28;20054;-75
2023/08/06 04:12:27;;;;;;;13.98;5.20;;;;;;;-141.23;100.00;62281.09;4960519;28;20445;-76
2023/08/06 04:15:27;;;;;;;10.48;4.90;;;;;;;-141.23;100.00;62281.09;4976664;28;20055;-78
2023/08/06 04:18:15;;;;;;;15.57;4.93;;;;;;;-141.23;100.00;62281.09;4972551;28;20054;-76
2023/08/06 04:21:13;;;;;;;12.13;4.50;;;;;;;-141.23;100.00;62281.09;4940976;28;20062;-77
2023/08/06 04:23:52;;;;;;;13.30;4.28;;;;;;;-141.23;100.00;62281.09;4956595;28;20145;-80
2023/08/06 04:26:32;;;;;;;17.30;4.90;;;;;;;-141.23;100.00;62281.09;4940886;28;20413;-73
2023/08/06 04:29:01;;;;;;;18.63;4.68;;;;;;;-141.23;100.00;62281.09;4940614;28;20589;-73
2023/08/06 04:31:30;;;;;;;12.05;4.53;;;;;;;-141.23;100.00;62281.09;4965627;28;20492;-71
2023/08/06 04:34:30;;;;;;;11.60;4.50;;;;;;;-141.23;100.00;62281.09;4947682;28;20058;-73
2023/08/06 04:37:10;;;;;;;15.30;4.43;;;;;;;-141.23;100.00;62281.09;5000374;28;20061;-73
2023/08/06 04:39:36;;;;;;;11.63;4.15;;;;;;;-141.23;100.00;62281.09;5034893;28;20467;-74
2023/08/06 04:42:03;;;;;;;11.93;4.82;;;;;;;-141.23;100.00;62281.09;5019458;28;20098;-74
2023/08/06 04:45:28;;;;;;;12.32;4.55;;;;;;;-141.23;100.00;62281.09;5000789;28;20056;-74
2023/08/06 04:48:20;;;;;;;14.07;4.57;;;;;;;-141.23;100.00;62281.09;5034604;28;20131;-74
2023/08/06 04:50:48;;;;;;;17.25;4.30;;;;;;;-141.23;100.00;62281.09;5000827;28;20068;-74
2023/08/06 04:53:14;;;;;;;16.17;3.92;;;;;;;-141.23;100.00;62281.09;5033798;28;20143;-74
2023/08/06 04:55:40;;;;;;;17.20;4.55;;;;;;;-141.23;100.00;62281.09;5018418;28;20148;-76
2023/08/06 04:59:04;;;;;;;12.93;4.00;;;;;;;-141.23;100.00;62281.09;5019694;28;20072;-75
2023/08/06 05:01:30;;;;;;;17.17;4.25;;;;;;;-141.23;100.00;62281.09;5018720;28;20136;-76
2023/08/06 05:04:57;;;;;;;10.98;3.90;;;;;;;-141.23;100.00;62281.09;5033882;28;20033;-74
2023/08/06 05:08:18;;;;;;;10.20;4.03;;;;;;;-141.23;100.00;62281.09;5009667;28;20385;-74
2023/08/06 05:10:46;;;;;;;14.55;4.43;;;;;;;-141.23;100.00;62281.09;5000418;28;20122;-74
2023/08/06 05:14:14;;;;;;;14.88;4.40;;;;;;;-141.23;100.00;62281.09;5033520;28;20576;-74
2023/08/06 05:17:08;;;;;;;16.33;4.57;;;;;;;-141.23;100.00;62281.09;4977859;28;20042;-74
2023/08/06 05:20:37;;;;;;;9.32;3.63;;;;;;;-141.23;100.00;62281.09;4962684;28;20046;-74
2023/08/06 05:23:06;;;;;;;11.18;4.15;;;;;;;-141.23;100.00;62281.09;4978229;28;20121;-75
2023/08/06 05:25:40;;;;;;;14.05;3.90;;;;;;;-141.23;100.00;62281.09;4993941;28;20552;-75
2023/08/06 05:28:07;;;;;;;10.50;4.13;;;;;;;-141.23;100.00;62281.09;4993981;28;20148;-72
2023/08/06 05:30:33;;;;;;;8.57;3.88;;;;;;;-141.23;100.00;62281.09;4961316;28;20107;-74
2023/08/06 05:33:00;;;;;;;10.10;3.63;;;;;;;-141.23;100.00;62281.09;4938815;28;20157;-73
2023/08/06 05:35:26;;;;;;;12.43;3.95;;;;;;;-141.23;100.00;62281.09;4939210;28;20046;-73
2023/08/06 05:38:51;;;;;;;10.40;4.30;;;;;;;-141.23;100.00;62281.09;4960072;28;20054;-74
2023/08/06 05:42:19;;;;;;;12.57;4.85;;;;;;;-141.23;100.00;62281.09;4939944;28;20047;-75
2023/08/06 05:45:46;;;;;;;17.98;5.90;;;;;;;-141.23;100.00;62281.09;4940940;28;20049;-74
2023/08/06 05:49:13;;;;;;;14.85;5.00;;;;;;;-141.23;100.00;62281.09;4964186;28;20056;-73
2023/08/06 05:52:38;;;;;;;12.13;3.78;;;;;;;-141.23;100.00;62281.09;4986884;28;20551;-72
2023/08/06 05:55:26;;;;;;;11.57;4.38;;;;;;;-141.23;100.00;62281.09;4992476;28;20040;-76
2023/08/06 05:58:52;;;;;;;12.10;3.67;;;;;;;-141.23;100.00;62281.09;4969355;28;20057;-74
2023/08/06 06:02:18;;;;;;;6.07;3.72;;;;;;;-141.23;100.00;62281.09;4987314;28;20041;-76
2023/08/06 06:05:43;;;;;;;9.05;3.50;;;;;;;-141.23;100.00;62281.09;4986255;28;20076;-74
2023/08/06 06:09:07;;;;;;;12.15;4.20;;;;;;;-141.23;100.00;62281.09;5025352;28;20041;-74
2023/08/06 06:12:30;;;;;;;8.75;4.30;;;;;;;-141.23;100.00;62281.09;5009081;28;20060;-74
2023/08/06 06:14:55;;;;;;;14.25;4.38;;;;;;;-141.23;100.00;62281.09;5006871;28;20065;-75
2023/08/06 06:17:21;;;;;;;6.85;3.80;;;;;;;-141.23;100.00;62281.09;5026841;28;20048;-76
2023/08/06 06:19:47;;;;;;;8.02;3.67;;;;;;;-141.23;100.00;62281.09;5029185;28;20048;-77
2023/08/06 06:22:36;;;;;;;12.80;3.50;;;;;;;-141.23;100.00;62281.09;5031830;28;20065;-76
2023/08/06 06:26:01;;;;;;;9.43;3.75;;;;;;;-141.23;100.00;62281.09;5031333;28;20033;-77
2023/08/06 06:29:26;;;;;;;10.38;3.67;;;;;;;-141.23;100.00;62281.09;5010400;28;20036;-76
2023/08/06 06:32:51;;;;;;;12.55;3.90;;;;;;;-141.23;100.00;62281.09;5026557;28;20049;-70
2023/08/06 06:36:16;;;;;;;10.50;3.95;;;;;;;-141.23;100.00;62281.09;5028174;28;20075;-77
2023/08/06 06:38:51;;;;;;;16.33;4.03;;;;;;;-141.23;100.00;62281.09;5033648;28;20483;-75
2023/08/06 06:42:16;;;;;;;17.13;3.78;;;;;;;-141.23;100.00;62281.09;5050390;28;20048;-79
2023/08/06 06:45:43;;;;;;;13.77;4.22;;;;;;;-141.23;100.00;62281.09;5016652;28;20041;-77
2023/08/06 06:49:08;;;;;;;9.48;3.50;;;;;;;-141.23;100.00;62281.09;5030195;28;20045;-76
2023/08/06 06:52:17;;;;;;;10.07;3.92;;;;;;;-141.23;100.00;62281.09;5011148;28;20201;-78
2023/08/06 06:55:42;;;;;;;11.95;3.28;;;;;;;-141.23;100.00;62281.09;5003466;28;20037;-78
2023/08/06 06:59:07;;;;;;;9.95;3.90;;;;;;;-141.23;100.00;62281.09;5038301;28;20041;-78
2023/08/06 07:02:31;;;;;;;22.90;3.63;;;;;;;-141.23;100.00;62281.09;5022935;28;20055;-76
2023/08/06 07:05:14;;;;;;;10.57;3.22;;;;;;;-141.23;100.00;62281.09;5055429;28;20095;-77
2023/08/06 07:08:05;;;;;;;11.10;3.63;;;;;;;-141.23;100.00;62281.09;5054165;28;20083;-77
2023/08/06 07:11:31;;;;;;;13.60;4.35;;;;;;;-141.23;100.00;62281.09;5021533;28;20076;-78
2023/08/06 07:14:10;;;;;;;12.63;4.43;;;;;;;-141.23;100.00;62281.09;5038376;28;20102;-77
2023/08/06 07:17:34;;;;;;;8.38;4.13;;;;;;;-141.23;100.00;62281.09;5021026;28;20123;-78
2023/08/06 07:21:00;;;;;;;13.10;4.28;;;;;;;-141.23;100.00;62281.09;5054219;28;20056;-78
2023/08/06 07:24:25;;;;;;;13.63;3.72;;;;;;;-141.23;100.00;62281.09;5054039;28;20045;-78
2023/08/06 07:27:49;;;;;;;11.10;3.53;;;;;;;-141.23;100.00;62281.09;5054167;28;20047;-78
2023/08/06 07:31:13;;;;;;;11.52;3.08;;;;;;;-141.23;100.00;62281.09;5021202;28;20102;-78
2023/08/06 07:34:38;;;;;;;14.82;2.88;;;;;;;-141.23;100.00;62281.09;5020745;28;20041;-79
2023/08/06 07:38:03;;;;;;;14.40;3.05;;;;;;;-141.23;100.00;62281.09;5053669;28;20045;-79
2023/08/06 07:41:27;;;;;;;4.90;2.58;;;;;;;-141.23;100.00;62281.09;5037417;28;20055;-78
2023/08/06 07:44:38;;;;;;;5.97;2.38;;;;;;;-141.23;100.00;62281.09;5005041;28;20045;-79
2023/08/06 07:48:03;;;;;;;10.93;2.83;;;;;;;-141.23;100.00;62281.09;5020432;28;20384;-80
2023/08/06 07:51:28;;;;;;;10.07;2.50;;;;;;;-141.23;100.00;62281.09;5053641;28;20045;-80
2023/08/06 07:54:53;;;;;;;6.40;2.42;;;;;;;-141.23;100.00;62281.09;5029091;28;20056;-80
2023/08/06 07:58:17;;;;;;;6.18;2.60;;;;;;;-141.23;100.00;62281.09;5053854;28;20049;-80
2023/08/06 08:01:42;;;;;;;5.63;2.47;;;;;;;-141.23;100.00;62281.09;5035960;28;20045;-80
2023/08/06 08:05:08;;;;;;;4.72;2.50;;;;;;;-141.23;100.00;62281.09;5036620;28;20498;-79
2023/08/06 08:07:34;;;;;;;8.95;2.60;;;;;;;-141.23;100.00;62281.09;5020278;28;20395;-80
2023/08/06 08:10:00;;;;;;;8.32;2.80;;;;;;;-141.23;100.00;62281.09;5054494;28;20052;-79
2023/08/06 08:12:27;;;;;;;8.02;2.78;;;;;;;-141.23;100.00;62281.09;5004079;28;20483;-80
2023/08/06 08:14:53;;;;;;;7.53;2.65;;;;;;;-141.23;100.00;62281.09;5020774;28;20462;-80
2023/08/06 08:17:18;;;;;;;11.35;2.40;;;;;;;-141.23;100.00;62281.09;5036837;28;20483;-81
2023/08/06 08:20:45;;;;;;;5.43;2.40;;;;;;;-141.23;100.00;62281.09;5053604;28;20127;-81
2023/08/06 08:24:10;;;;;;;8.15;2.42;;;;;;;-141.23;100.00;62281.09;5013768;28;20033;-79
2023/08/06 08:26:42;;;;;;;6.72;2.58;;;;;;;-141.23;100.00;62281.09;5009665;28;20051;-78
2023/08/06 08:29:10;;;;;;;18.45;2.97;;;;;;;-141.23;100.00;62281.09;5027468;28;20076;-81
2023/08/06 08:32:35;;;;;;;;;;;;;;;-141.23;100.00;62281.09;5042638;28;20377;-78
2023/08/06 08:35:01;;;;;;;12.85;2.42;;;;;;;-141.23;100.00;62281.09;5044312;28;19921;-74
2023/08/06 08:38:24;;;;;;;12.75;2.55;;;;;;;-141.23;100.00;62281.09;5041800;28;20482;-80
2023/08/06 08:40:52;;;;;;;7.78;1.90;;;;;;;-141.23;100.00;62281.09;5030989;28;20090;-82
2023/08/06 08:43:25;;;;;;;9.02;2.30;;;;;;;-141.23;100.00;62281.09;5040939;28;20446;-77
2023/08/06 08:45:51;;;;;;;6.75;1.90;;;;;;;-141.23;100.00;62281.09;5042834;28;20041;-75
2023/08/06 08:48:19;;;;;;;12.13;2.30;;;;;;;-141.23;100.00;62281.09;5021997;28;20037;-78
2023/08/06 08:50:47;;;;;;;12.70;2.75;;;;;;;-141.23;100.00;62281.09;5040846;28;20040;-80
2023/08/06 08:53:16;;;;;;;8.80;2.33;;;;;;;-141.23;100.00;62281.09;4991658;28;20048;-80
2023/08/06 08:55:42;;;;;;;;;;;;;;;-141.23;100.00;62281.09;5016576;28;20085;-81
2023/08/06 08:58:08;;;;;;;7.43;2.20;;;;;;;-141.23;100.00;62281.09;5033785;28;19920;-78
2023/08/06 09:00:35;;;;;;;9.25;2.15;;;;;;;-141.23;100.00;62281.09;5023265;28;20036;-79
2023/08/06 09:03:04;;;;;;;12.27;2.47;;;;;;;-141.23;100.00;62281.09;5009422;28;20045;-73
2023/08/06 09:05:33;;;;;;;8.45;2.58;;;;;;;-141.23;100.00;62281.09;5043604;28;20045;-79
2023/08/06 09:08:24;;;;;;;8.30;2.40;;;;;;;-141.23;100.00;62281.09;5043626;28;20067;-79
2023/08/06 09:10:52;;;;;;;11.13;2.67;;;;;;;-141.23;100.00;62281.09;5010205;28;20041;-77
2023/08/06 09:13:19;;;;;;;16.50;2.70;;;;;;;-141.23;100.00;62281.09;5015732;28;20638;-76
2023/08/06 09:15:47;;;;;;;9.07;2.83;;;;;;;-141.23;100.00;62281.09;5031627;28;20049;-76
2023/08/06 09:18:13;;;;;;;8.35;2.72;;;;;;;-141.23;100.00;62281.09;5031751;28;20042;-75
2023/08/06 09:20:39;;;;;;;7.97;2.47;;;;;;;-141.23;100.00;62281.09;5015209;28;20048;-73
2023/08/06 09:23:10;;;;;;;11.48;2.40;;;;;;;-141.23;100.00;62281.09;4999022;28;20103;-77
2023/08/06 09:25:39;;;;;;;8.30;2.50;;;;;;;-141.23;100.00;62281.09;5031621;28;20483;-77
2023/08/06 09:28:39;;;;;;;10.05;2.47;;;;;;;-141.23;100.00;62281.09;5031972;28;20055;-83
2023/08/06 09:31:08;;;;;;;13.38;2.60;;;;;;;-141.23;100.00;62281.09;5031714;28;20037;-76
2023/08/06 09:33:36;;;;;;;8.07;2.50;;;;;;;-141.23;100.00;62281.09;5031925;28;20076;-76
2023/08/06 09:36:11;;;;;;;6.45;2.80;;;;;;;-141.23;100.00;62281.09;5032332;28;20053;-76
2023/08/06 09:38:41;;;;;;;9.20;2.45;;;;;;;-141.23;100.00;62281.09;5032671;28;20232;-74
2023/08/06 09:42:06;;;;;;;9.57;2.58;;;;;;;-141.23;100.00;62281.09;4999042;28;20088;-75
2023/08/06 09:44:36;;;;;;;9.38;2.50;;;;;;;-141.23;100.00;62281.09;5015044;28;20079;-78
2023/08/06 09:47:03;;;;;;;11.65;2.38;;;;;;;-141.23;100.00;62281.09;5014520;28;20502;-77
2023/08/06 09:49:32;;;;;;;7.78;2.80;;;;;;;-141.23;100.00;62281.09;5015250;28;20049;-78
2023/08/06 09:51:59;;;;;;;5.68;2.50;;;;;;;-141.23;100.00;62281.09;5031431;28;20134;-79
2023/08/06 09:54:27;;;;;;;10.13;2.28;;;;;;;-141.23;100.00;62281.09;4998670;28;20037;-75
2023/08/06 09:56:54;;;;;;;8.57;2.25;;;;;;;-141.23;100.00;62281.09;5031878;28;20045;-75
2023/08/06 09:59:54;;;;;;;11.88;2.20;;;;;;;-141.23;100.00;62281.09;5032998;28;20423;-75
2023/08/06 10:02:24;;;;;;;5.28;2.38;;;;;;;-141.23;100.00;62281.09;5049594;28;20455;-79
2023/08/06 10:04:50;;;;;;;8.98;2.35;;;;;;;-141.23;100.00;62281.09;5033059;28;20068;-80
2023/08/06 10:07:18;;;;;;;8.73;2.20;;;;;;;-141.23;100.00;62281.09;5032960;28;20069;-79
2023/08/06 10:09:44;;;;;;;8.43;2.13;;;;;;;-141.23;100.00;62281.09;5033169;28;20479;-79
2023/08/06 10:12:10;;;;;;;11.05;2.60;;;;;;;-141.23;100.00;62281.09;5017278;28;20052;-76
2023/08/06 10:15:00;;;;;;;8.32;2.30;;;;;;;-141.23;100.00;62281.09;5017064;28;20053;-78
2023/08/06 10:17:27;;;;;;;7.28;2.08;;;;;;;-141.23;100.00;62281.09;5044212;28;20032;-81
2023/08/06 10:19:56;;;;;;;13.93;2.47;;;;;;;-141.23;100.00;62281.09;5028056;28;20076;-77
2023/08/06 10:22:23;;;;;;;15.95;2.30;;;;;;;-141.23;100.00;62281.09;5061223;28;20514;-76
2023/08/06 10:25:04;;;;;;;3.72;2.22;;;;;;;-141.23;100.00;62281.09;5033451;28;20505;-78
2023/08/06 10:27:53;;;;;;;13.05;2.50;;;;;;;-141.23;100.00;62281.09;5022284;28;20033;-78
2023/08/06 10:30:28;;;;;;;10.63;2.17;;;;;;;-141.23;100.00;62281.09;5045160;28;20514;-80
2023/08/06 10:33:02;;;;;;;12.43;2.40;;;;;;;-141.23;100.00;62281.09;5035680;28;20052;-80
2023/08/06 10:35:31;;;;;;;9.43;2.05;;;;;;;-141.23;100.00;62281.09;5035138;28;20037;-78
2023/08/06 10:38:13;;;;;;;7.97;2.10;;;;;;;-141.23;100.00;62281.09;5035355;28;20053;-72
2023/08/06 10:40:49;;;;;;;4.95;1.90;;;;;;;-141.23;100.00;62281.09;5035850;28;20041;-72
2023/08/06 10:43:28;;;;;;;8.90;2.27;;;;;;;-141.23;100.00;62281.09;5034760;28;20447;-69
2023/08/06 10:46:11;;;;;;;10.00;2.28;;;;;;;-141.23;100.00;62281.09;5034737;28;20079;-69
2023/08/06 10:48:41;;;;;;;8.20;2.20;;;;;;;-141.23;100.00;62281.09;5035020;28;20128;-69
2023/08/06 10:51:11;;;;;;;8.90;2.40;;;;;;;-141.23;100.00;62281.09;5017939;28;20080;-69
2023/08/06 10:53:38;;;;;;;4.90;2.63;;;;;;;-141.23;100.00;62281.09;5002391;28;20056;-68
2023/08/06 10:56:23;;;;;;;3.75;2.05;;;;;;;-141.23;100.00;62281.09;5017860;28;20042;-69
2023/08/06 10:58:51;;;;;;;6.63;2.60;;;;;;;-141.23;100.00;62281.09;5018284;28;20091;-69
2023/08/06 11:01:17;;;;;;;7.00;2.55;;;;;;;-141.23;100.00;62281.09;5016704;28;20092;-68
2023/08/06 11:03:52;;;;;;;4.40;2.70;;;;;;;-141.23;100.00;62281.09;5017414;28;20456;-69
2023/08/06 11:06:20;;;;;;;9.43;2.55;;;;;;;-141.23;100.00;62281.09;5034997;28;20472;-68
2023/08/06 11:08:53;;;;;;;7.85;2.70;;;;;;;-141.23;100.00;62281.09;5018238;28;20367;-68
2023/08/06 11:11:20;;;;;;;11.63;3.22;;;;;;;-141.23;100.00;62281.09;5017700;28;20080;-68
2023/08/06 11:13:49;;;;;;;12.68;3.05;;;;;;;-141.23;100.00;62281.09;5033910;28;20041;-69
2023/08/06 11:16:26;;;;;;;6.05;2.45;;;;;;;-141.23;100.00;62281.09;5001056;28;20060;-68
2023/08/06 11:18:54;;;;;;;9.32;2.60;;;;;;;-141.23;100.00;62281.09;5016537;28;20037;-68
2023/08/06 11:21:21;;;;;;;6.20;2.97;;;;;;;-141.23;100.00;62281.09;5033715;28;20072;-68
2023/08/06 11:23:47;;;;;;;5.10;3.03;;;;;;;-141.23;100.00;62281.09;5017594;28;20494;-67
2023/08/06 11:26:12;;;;;;;8.50;3.00;;;;;;;-141.23;100.00;62281.09;5034013;28;20073;-68
2023/08/06 11:28:38;;;;;;;13.00;3.13;;;;;;;-141.23;100.00;62281.09;5034043;28;20033;-68
2023/08/06 11:31:04;;;;;;;12.63;3.85;;;;;;;-141.23;100.00;62281.09;5035124;28;20056;-68
2023/08/06 11:33:31;;;;;;;11.52;4.07;;;;;;;-141.23;100.00;62281.09;5034045;28;20099;-68
2023/08/06 11:35:59;;;;;;;17.50;3.40;;;;;;;-141.23;100.00;62281.09;5033809;28;20045;-68
2023/08/06 11:38:31;;;;;;;11.63;3.40;;;;;;;-141.23;100.00;62281.09;5034662;28;20041;-67
2023/08/06 11:41:02;;;;;;;7.20;3.28;;;;;;;-141.23;100.00;62281.09;5034789;28;20045;-67
2023/08/06 11:43:30;;;;;;;7.40;3.22;;;;;;;-141.23;100.00;62281.09;5034837;28;20048;-68
2023/08/06 11:45:56;;;;;;;13.20;2.97;;;;;;;-141.23;100.00;62281.09;5034030;28;20329;-67
2023/08/06 11:48:22;;;;;;;8.30;3.78;;;;;;;-141.23;100.00;62281.09;5033847;28;20053;-69
2023/08/06 11:50:48;;;;;;;6.63;3.55;;;;;;;-141.23;100.00;62281.09;5033965;28;20041;-67
2023/08/06 11:53:15;;;;;;;10.40;4.07;;;;;;;-141.23;100.00;62281.09;5033567;28;20472;-67
2023/08/06 11:55:41;;;;;;;12.05;3.90;;;;;;;-141.23;100.00;62281.09;5017069;28;20135;-67
2023/08/06 11:58:07;;;;;;;8.43;3.38;;;;;;;-141.23;100.00;62281.09;5017319;28;20045;-67
2023/08/06 12:00:33;;;;;;;9.50;3.50;;;;;;;-141.23;100.00;62281.09;5034388;28;20073;-67
2023/08/06 12:03:00;;;;;;;9.27;3.35;;;;;;;-141.23;100.00;62281.09;5033494;28;20105;-67
2023/08/06 12:05:30;;;;;;;11.23;3.95;;;;;;;-141.23;100.00;62281.09;5017343;28;20072;-67
2023/08/06 12:07:57;;;;;;;13.15;4.00;;;;;;;-141.23;100.00;62281.09;5033528;28;20334;-67
2023/08/06 12:10:25;;;;;;;9.93;4.15;;;;;;;-141.23;100.00;62281.09;5016632;28;20466;-67
2023/08/06 12:12:51;;;;;;;17.80;3.97;;;;;;;-141.23;100.00;62281.09;5033377;28;20033;-67
2023/08/06 12:15:17;;;;;;;12.73;3.67;;;;;;;-141.23;100.00;62281.09;5016729;28;20123;-67
2023/08/06 12:17:43;;;;;;;13.55;4.05;;;;;;;-141.23;100.00;62281.09;5033004;28;20045;-67
2023/08/06 12:20:11;;;;;;;12.45;4.60;;;;;;;-141.23;100.00;62281.09;5033331;28;20048;-67
2023/08/06 12:22:38;;;;;;;18.17;4.35;;;;;;;-141.23;100.00;62281.09;5034255;28;20124;-67
2023/08/06 12:25:08;;;;;;;8.88;3.55;;;;;;;-141.23;100.00;62281.09;5016712;28;20080;-67
2023/08/06 12:27:35;;;;;;;;;;;;;;;-141.23;100.00;62281.09;5033257;28;20053;-67
2023/08/06 12:30:01;;;;;;;11.13;4.28;;;;;;;-141.23;100.00;62281.09;5032754;28;19928;-67
2023/08/06 12:32:35;;;;;;;8.25;3.80;;;;;;;-141.23;100.00;62281.09;5032976;28;20503;-66
2023/08/06 12:35:01;;;;;;;12.73;3.60;;;;;;;-141.23;100.00;62281.09;5016206;28;20103;-66
2023/08/06 12:37:33;;;;;;;12.23;4.10;;;;;;;-141.23;100.00;62281.09;5032915;28;20041;-67
2023/08/06 12:39:59;;;;;;;9.57;3.53;;;;;;;-141.23;100.00;62281.09;5016345;28;20056;-67
2023/08/06 12:42:25;;;;;;;9.23;3.60;;;;;;;-141.23;100.00;62281.09;5032777;28;20373;-67
2023/08/06 12:44:51;;;;;;;7.25;3.20;;;;;;;-141.23;100.00;62281.09;5016204;28;20041;-67
2023/08/06 12:47:18;;;;;;;7.47;3.90;;;;;;;-141.23;100.00;62281.09;5033276;28;20136;-67
2023/08/06 12:49:44;;;;;;;8.10;3.72;;;;;;;-141.23;100.00;62281.09;5033532;28;20037;-66